EGNC

Carlisle Airport

Carlisle, United Kingdom
METAR EGNC 171650Z 23016KT 190V270 8000 VCSH SCT008 BKN018 14/13 Q1012
Observed Flight Rules
Aug-17 @ 16:50 UTC (10 hours ago) Marginal Visual Flight Rules
Wind Visibility Clouds
230° at 16 knots 7,998 meters
  • Scattered at 800' AGL
  • Broken at 1,800' AGL
Temperatures Readings
Current 14°C / 57°F
Dewpoint 13°C / 55°F
Humidity 94%
Altimeter 29.88" Hg
Pressure 1012 hPa
Elevation 26
METAR EGNC 171650Z 23016KT 190V270 8000 VCSH SCT008 BKN018 14/13 Q1012
Observed Flight Rules
Aug-17 @ 16:50 UTC
(10 hours ago)
MVFR
Wind Visibility
230° at 16 knots 7,998 meters
Clouds
  • Scattered at 800' AGL
  • Broken at 1,800' AGL
Temperature Dewpoint
14°C / 57°F 13°C / 55°F
Humidity Altimeter Pressure
94% 29.88" Hg 1012 hPa